createdAt,value
2023-02-13T00:04:08.131Z,84.58
2023-02-13T00:09:11.206Z,84.44
2023-02-13T00:14:13.310Z,85.01
2023-02-13T00:19:15.088Z,84.93
2023-02-13T00:24:16.829Z,84.60
2023-02-13T00:29:18.502Z,84.47
2023-02-13T00:34:25.421Z,84.57
2023-02-13T00:39:27.153Z,84.72
2023-02-13T00:44:28.831Z,84.88
2023-02-13T00:49:30.502Z,84.80
2023-02-13T00:54:32.133Z,84.74
2023-02-13T00:59:33.829Z,84.96
2023-02-13T01:04:35.616Z,85.41
2023-02-13T01:09:37.344Z,84.87
2023-02-13T01:14:39.027Z,84.87
2023-02-13T01:19:41.428Z,85.26
2023-02-13T01:24:43.295Z,85.30
2023-02-13T01:29:44.961Z,85.23
2023-02-13T01:34:46.736Z,85.32
2023-02-13T01:39:48.876Z,85.68
2023-02-13T01:44:59.229Z,85.46
2023-02-13T01:50:11.277Z,86.00
2023-02-13T01:55:14.456Z,85.73
2023-02-13T02:00:17.664Z,85.80
2023-02-13T02:05:23.403Z,86.07
2023-02-13T02:10:25.563Z,85.99
2023-02-13T02:15:27.619Z,86.08
2023-02-13T02:21:01.020Z,86.10
2023-02-13T02:26:34.600Z,86.34
2023-02-13T02:31:57.435Z,86.59
2023-02-13T02:37:13.041Z,86.44
2023-02-13T02:42:17.861Z,86.32
2023-02-13T02:48:02.829Z,86.38
2023-02-13T02:53:24.472Z,86.67
2023-02-13T02:58:56.877Z,86.65
2023-02-13T03:04:20.564Z,86.54
2023-02-13T03:09:46.388Z,86.52
2023-02-13T03:14:48.797Z,86.61
2023-02-13T03:20:37.631Z,86.62
2023-02-13T03:26:03.630Z,86.32
2023-02-13T03:31:05.345Z,86.38
2023-02-13T03:36:31.956Z,86.49
2023-02-13T03:41:55.117Z,86.55
2023-02-13T03:47:00.787Z,86.64
2023-02-13T03:52:09.602Z,86.68
2023-02-13T03:57:34.388Z,86.83
2023-02-13T04:02:40.546Z,86.97
2023-02-13T04:07:42.660Z,87.12
2023-02-13T04:12:59.811Z,87.26
2023-02-13T04:18:20.077Z,87.09
2023-02-13T04:23:22.037Z,86.97
2023-02-13T04:28:23.836Z,87.05
2023-02-13T04:33:25.647Z,86.81
2023-02-13T04:38:27.447Z,86.86
2023-02-13T04:43:29.213Z,86.89
2023-02-13T04:48:31.114Z,86.89
2023-02-13T04:53:32.939Z,86.55
2023-02-13T04:58:34.761Z,86.75
2023-02-13T05:03:36.445Z,86.68
2023-02-13T05:08:38.111Z,87.00
2023-02-13T05:13:39.844Z,87.12
2023-02-13T05:18:41.552Z,86.79
2023-02-13T05:23:43.187Z,86.45
2023-02-13T05:29:03.514Z,86.07
2023-02-13T05:34:05.321Z,86.10
2023-02-13T05:39:07.937Z,86.28
2023-02-13T05:44:10.537Z,86.78
2023-02-13T05:49:14.091Z,86.42
2023-02-13T05:54:15.829Z,86.37
2023-02-13T05:59:17.676Z,86.14
2023-02-13T06:04:19.439Z,86.00
2023-02-13T06:09:21.818Z,85.54
2023-02-13T06:14:23.559Z,85.59
2023-02-13T06:19:25.307Z,85.82
2023-02-13T06:24:27.180Z,85.82
2023-02-13T06:29:28.991Z,85.92
2023-02-13T06:34:30.821Z,86.31
2023-02-13T06:39:32.479Z,86.56
2023-02-13T06:44:34.299Z,86.67
2023-02-13T06:49:35.985Z,86.54
2023-02-13T06:54:47.406Z,86.88
2023-02-13T06:59:49.612Z,86.66
2023-02-13T07:04:51.405Z,86.74
2023-02-13T07:09:53.089Z,86.72
2023-02-13T07:14:54.768Z,86.88
2023-02-13T07:19:56.413Z,86.91
2023-02-13T07:24:59.051Z,86.77
2023-02-13T07:30:00.711Z,86.41
2023-02-13T07:35:03.042Z,86.07
2023-02-13T07:40:06.580Z,85.80
2023-02-13T07:45:09.128Z,85.57
2023-02-13T07:50:11.642Z,85.41
2023-02-13T07:55:13.313Z,85.05
2023-02-13T08:00:15.627Z,84.58
2023-02-13T08:05:17.535Z,84.91
2023-02-13T08:10:38.772Z,84.75
2023-02-13T08:15:40.787Z,84.60
2023-02-13T08:20:42.479Z,84.57
2023-02-13T08:25:44.250Z,84.68
2023-02-13T08:30:45.998Z,84.62
2023-02-13T08:35:48.051Z,84.26
2023-02-13T08:40:49.803Z,83.93
2023-02-13T08:45:51.488Z,83.51
2023-02-13T08:50:53.406Z,83.60
2023-02-13T08:55:57.393Z,82.76
2023-02-13T09:00:59.567Z,81.78
2023-02-13T09:06:02.619Z,82.50
2023-02-13T09:11:06.573Z,82.61
2023-02-13T09:16:08.520Z,82.25
2023-02-13T09:21:12.936Z,81.75
2023-02-13T09:26:16.055Z,81.91
2023-02-13T09:31:20.762Z,81.62
2023-02-13T09:36:24.588Z,81.65
2023-02-13T09:41:45.200Z,81.45
2023-02-13T09:46:47.225Z,82.25
2023-02-13T09:51:56.287Z,82.26
2023-02-13T09:57:07.516Z,82.13
2023-02-13T10:02:34.109Z,82.47
2023-02-13T10:07:59.349Z,82.75
2023-02-13T10:13:23.587Z,83.16
2023-02-13T10:18:38.192Z,83.30
2023-02-13T10:23:51.346Z,83.54
2023-02-13T10:29:23.381Z,83.24
2023-02-13T10:34:28.769Z,82.56
2023-02-13T10:39:31.782Z,82.69
2023-02-13T10:44:41.766Z,82.27
2023-02-13T10:50:25.039Z,82.27
2023-02-13T10:55:36.505Z,81.60
2023-02-13T11:01:00.325Z,81.24
2023-02-13T11:06:07.963Z,81.29
2023-02-13T11:11:32.852Z,82.04
2023-02-13T11:16:46.464Z,81.21
2023-02-13T11:21:54.775Z,80.44
2023-02-13T11:27:08.715Z,80.57
2023-02-13T11:32:22.500Z,81.09
2023-02-13T11:37:31.594Z,81.84
2023-02-13T11:42:37.192Z,82.21
2023-02-13T11:47:42.113Z,82.78
2023-02-13T11:52:51.964Z,83.04
2023-02-13T11:58:02.763Z,82.59
2023-02-13T12:03:26.425Z,83.04
2023-02-13T12:08:30.106Z,82.77
2023-02-13T12:13:37.617Z,82.25
2023-02-13T12:18:47.478Z,82.28
2023-02-13T12:24:04.489Z,83.00
2023-02-13T12:29:18.136Z,83.79
2023-02-13T12:34:41.335Z,83.62
2023-02-13T12:40:24.707Z,83.94
2023-02-13T12:45:29.174Z,84.29
2023-02-13T12:51:02.229Z,84.45
2023-02-13T12:56:23.996Z,84.62
2023-02-13T13:01:51.344Z,84.14
2023-02-13T13:07:05.919Z,84.42
2023-02-13T13:12:48.347Z,84.23
2023-02-13T13:18:05.156Z,84.19
2023-02-13T13:23:29.829Z,83.70
2023-02-13T13:28:40.569Z,83.19
2023-02-13T13:33:46.081Z,83.02
2023-02-13T13:39:09.852Z,83.37
2023-02-13T13:44:33.787Z,84.03
2023-02-13T13:49:52.760Z,84.44
2023-02-13T13:54:57.643Z,84.08
2023-02-13T14:00:23.860Z,84.18
2023-02-13T14:05:30.905Z,83.19
2023-02-13T14:10:32.521Z,81.62
2023-02-13T14:15:34.244Z,81.89
2023-02-13T14:20:52.568Z,81.88
2023-02-13T14:26:33.196Z,81.72
2023-02-13T14:31:42.213Z,81.69
2023-02-13T14:37:00.281Z,83.00
2023-02-13T14:42:04.294Z,82.37
2023-02-13T14:47:20.094Z,82.23
2023-02-13T14:52:28.868Z,83.47
2023-02-13T14:57:37.923Z,83.33
2023-02-13T15:02:49.494Z,83.68
2023-02-13T15:07:59.039Z,83.31
2023-02-13T15:13:02.423Z,83.55
2023-02-13T15:18:09.947Z,83.24
2023-02-13T15:23:26.635Z,82.54
2023-02-13T15:28:29.470Z,81.85
2023-02-13T15:33:43.994Z,82.30
2023-02-13T15:38:46.523Z,82.68
2023-02-13T15:43:56.091Z,82.76
2023-02-13T15:49:00.084Z,83.22
2023-02-13T15:54:20.997Z,83.17
2023-02-13T15:59:25.107Z,83.50
2023-02-13T16:04:28.225Z,83.14
2023-02-13T16:09:31.374Z,83.14
2023-02-13T16:14:44.621Z,82.95
2023-02-13T16:20:15.493Z,82.81
2023-02-13T16:25:30.970Z,82.89
2023-02-13T16:31:05.112Z,82.79
2023-02-13T16:36:29.347Z,83.03
2023-02-13T16:41:33.561Z,82.62
2023-02-13T16:46:41.141Z,82.99
2023-02-13T16:52:26.749Z,83.02
2023-02-13T16:57:32.114Z,83.17
2023-02-13T17:02:39.902Z,83.10
2023-02-13T17:07:45.068Z,83.12
2023-02-13T17:12:48.153Z,83.21
2023-02-13T17:17:56.661Z,83.48
2023-02-13T17:23:00.998Z,83.99
2023-02-13T17:28:11.506Z,84.10
2023-02-13T17:33:23.544Z,84.24
2023-02-13T17:38:25.212Z,84.28
2023-02-13T17:43:28.001Z,84.28
2023-02-13T17:48:30.016Z,84.34
2023-02-13T17:53:31.950Z,84.47
2023-02-13T17:58:33.755Z,84.56
2023-02-13T18:03:35.551Z,84.75
2023-02-13T18:08:37.266Z,84.74
2023-02-13T18:13:40.880Z,84.95
2023-02-13T18:18:42.592Z,85.06
2023-02-13T18:23:44.374Z,85.09
2023-02-13T18:28:46.205Z,85.12
2023-02-13T18:33:47.885Z,85.20
2023-02-13T18:38:51.279Z,85.16
2023-02-13T18:43:57.033Z,85.22
2023-02-13T18:48:59.094Z,85.16
2023-02-13T18:54:01.181Z,84.99
2023-02-13T18:59:02.835Z,85.06
2023-02-13T19:04:05.849Z,85.04
2023-02-13T19:09:07.859Z,84.91
2023-02-13T19:14:14.487Z,84.74
2023-02-13T19:19:17.733Z,84.57
2023-02-13T19:24:20.114Z,84.20
2023-02-13T19:29:22.014Z,84.11
2023-02-13T19:34:23.755Z,83.97
2023-02-13T19:39:25.441Z,84.01
2023-02-13T19:44:30.324Z,84.14
2023-02-13T19:49:32.343Z,83.99
2023-02-13T19:54:34.308Z,84.09
2023-02-13T19:59:36.529Z,84.07
2023-02-13T20:04:39.492Z,84.12
2023-02-13T20:09:41.392Z,83.95
2023-02-13T20:14:43.440Z,83.70
2023-02-13T20:19:45.365Z,83.84
2023-02-13T20:24:47.481Z,83.55
2023-02-13T20:29:50.205Z,83.64
2023-02-13T20:34:59.409Z,83.80
2023-02-13T20:40:02.211Z,83.51
2023-02-13T20:45:04.735Z,83.68
2023-02-13T20:50:07.278Z,83.50
2023-02-13T20:55:09.299Z,83.30
2023-02-13T21:00:13.368Z,83.55
2023-02-13T21:05:15.039Z,83.45
2023-02-13T21:10:17.924Z,83.26
2023-02-13T21:15:19.570Z,83.46
2023-02-13T21:20:21.267Z,83.37
2023-02-13T21:25:22.920Z,83.41
2023-02-13T21:30:24.617Z,83.44
2023-02-13T21:35:26.361Z,83.34
2023-02-13T21:40:28.017Z,83.44
2023-02-13T21:45:34.692Z,83.47
2023-02-13T21:50:37.671Z,83.64
2023-02-13T21:55:39.323Z,83.56
2023-02-13T22:00:40.987Z,83.60
2023-02-13T22:05:46.669Z,83.78
2023-02-13T22:10:56.466Z,83.96
2023-02-13T22:16:09.275Z,84.07
2023-02-13T22:21:18.039Z,84.17
2023-02-13T22:26:21.214Z,84.26
2023-02-13T22:31:25.840Z,84.26
2023-02-13T22:36:27.801Z,84.45
2023-02-13T22:41:29.873Z,84.54
2023-02-13T22:46:32.992Z,84.61
2023-02-13T22:51:36.190Z,84.58
2023-02-13T22:56:37.871Z,84.61
2023-02-13T23:01:39.857Z,84.68
2023-02-13T23:06:41.571Z,84.61
2023-02-13T23:12:01.714Z,84.74
2023-02-13T23:17:22.157Z,84.77
2023-02-13T23:22:23.760Z,84.82
2023-02-13T23:27:25.384Z,84.80
2023-02-13T23:32:27.657Z,84.92
2023-02-13T23:37:29.344Z,85.03
2023-02-13T23:42:31.065Z,85.10
2023-02-13T23:47:32.828Z,85.10
2023-02-13T23:52:34.550Z,84.99
2023-02-13T23:57:36.316Z,85.10
